createdAt,value
2019-04-06T00:01:12.456Z,98434.30
2019-04-06T00:03:39.954Z,98437.56
2019-04-06T00:06:07.474Z,98425.20
2019-04-06T00:08:34.998Z,98426.00
2019-04-06T00:11:02.533Z,98424.67
2019-04-06T00:13:30.048Z,98425.06
2019-04-06T00:15:57.590Z,98425.73
2019-04-06T00:18:25.074Z,98425.23
2019-04-06T00:20:52.578Z,98423.53
2019-04-06T00:23:20.097Z,98421.33
2019-04-06T00:25:47.622Z,98417.88
2019-04-06T00:28:15.135Z,98414.33
2019-04-06T00:30:45.260Z,98415.44
2019-04-06T00:33:14.344Z,98419.58
2019-04-06T00:35:41.856Z,98415.59
2019-04-06T00:38:09.432Z,98413.84
2019-04-06T00:40:36.953Z,98411.22
2019-04-06T00:43:04.448Z,98412.66
2019-04-06T00:45:31.959Z,98409.88
2019-04-06T00:48:00.242Z,98420.48
2019-04-06T00:50:27.858Z,98408.36
2019-04-06T00:52:55.363Z,98407.48
2019-04-06T00:55:22.887Z,98406.23
2019-04-06T00:57:50.371Z,98404.22
2019-04-06T01:00:17.894Z,98402.63
2019-04-06T01:02:45.576Z,98403.66
2019-04-06T01:05:13.616Z,98400.17
2019-04-06T01:07:41.134Z,98404.70
2019-04-06T01:10:08.633Z,98403.72
2019-04-06T01:12:36.171Z,98400.01
2019-04-06T01:15:03.656Z,98392.84
2019-04-06T01:17:31.188Z,98396.53
2019-04-06T01:19:58.705Z,98394.23
2019-04-06T01:22:26.203Z,98396.59
2019-04-06T01:24:53.721Z,98393.80
2019-04-06T01:27:21.238Z,98392.23
2019-04-06T01:29:48.902Z,98389.71
2019-04-06T01:32:16.414Z,98392.02
2019-04-06T01:34:44.165Z,98393.13
2019-04-06T01:37:11.646Z,98399.55
2019-04-06T01:39:39.133Z,98395.09
2019-04-06T01:42:06.662Z,98397.80
2019-04-06T01:44:34.291Z,98406.02
2019-04-06T01:47:01.884Z,98400.84
2019-04-06T01:49:29.456Z,98399.52
2019-04-06T01:51:56.944Z,98392.54
2019-04-06T01:54:24.469Z,98385.59
2019-04-06T01:56:51.964Z,98383.73
2019-04-06T01:59:19.502Z,98385.70
2019-04-06T02:01:56.932Z,98385.10
2019-04-06T02:04:24.436Z,98384.28
2019-04-06T02:06:51.963Z,98380.65
2019-04-06T02:09:19.496Z,98381.47
2019-04-06T02:11:46.977Z,98374.70
2019-04-06T02:14:15.321Z,98381.89
2019-04-06T02:16:42.798Z,98387.36
2019-04-06T02:19:10.273Z,98383.94
2019-04-06T02:21:37.790Z,98390.92
2019-04-06T02:24:05.276Z,98385.44
2019-04-06T02:26:32.781Z,98390.88
2019-04-06T02:29:00.252Z,98384.32
2019-04-06T02:31:42.627Z,98380.69
2019-04-06T02:34:25.008Z,98387.75
2019-04-06T02:37:13.288Z,98378.41
2019-04-06T02:39:55.647Z,98382.86
2019-04-06T02:42:33.049Z,98377.73
2019-04-06T02:45:02.208Z,98379.73
2019-04-06T02:47:29.772Z,98380.38
2019-04-06T02:49:57.252Z,98382.95
2019-04-06T02:52:24.771Z,98373.02
2019-04-06T02:54:52.262Z,98382.12
2019-04-06T02:57:19.864Z,98376.22
2019-04-06T02:59:47.304Z,98379.82
2019-04-06T03:02:14.894Z,98377.43
2019-04-06T03:04:42.289Z,98369.98
2019-04-06T03:07:09.904Z,98373.88
2019-04-06T03:09:37.325Z,98371.01
2019-04-06T03:12:04.849Z,98373.45
2019-04-06T03:14:37.194Z,98367.63
2019-04-06T03:17:04.683Z,98374.22
2019-04-06T03:19:32.218Z,98373.92
2019-04-06T03:21:59.922Z,98372.73
2019-04-06T03:24:27.316Z,98373.84
2019-04-06T03:27:02.018Z,98379.91
2019-04-06T03:29:22.406Z,98377.73
2019-04-06T03:31:49.910Z,98379.31
2019-04-06T03:34:21.209Z,98375.04
2019-04-06T03:36:45.133Z,98377.31
2019-04-06T03:39:12.618Z,98378.55
2019-04-06T03:41:40.097Z,98373.19
2019-04-06T03:44:07.587Z,98377.55
2019-04-06T03:46:35.114Z,98377.17
2019-04-06T03:49:02.630Z,98373.56
2019-04-06T03:51:30.107Z,98379.91
2019-04-06T03:53:58.445Z,98372.23
2019-04-06T03:56:25.923Z,98370.91
2019-04-06T03:58:53.404Z,98384.42
2019-04-06T04:01:20.903Z,98372.42
2019-04-06T04:03:48.362Z,98382.05
2019-04-06T04:06:15.900Z,98383.71
2019-04-06T04:08:43.354Z,98378.53
2019-04-06T04:11:10.820Z,98371.67
2019-04-06T04:13:38.256Z,98374.03
2019-04-06T04:16:05.723Z,98372.15
2019-04-06T04:18:33.181Z,98365.04
2019-04-06T04:21:00.653Z,98364.14
2019-04-06T04:23:28.103Z,98371.80
2019-04-06T04:25:55.582Z,98372.75
2019-04-06T04:28:23.040Z,98386.72
2019-04-06T04:30:50.707Z,98378.70
2019-04-06T04:33:18.687Z,98386.33
2019-04-06T04:35:46.155Z,98391.12
2019-04-06T04:38:13.595Z,98390.95
2019-04-06T04:40:41.189Z,98385.52
2019-04-06T04:43:08.583Z,98385.04
2019-04-06T04:45:36.044Z,98387.61
2019-04-06T04:48:03.498Z,98390.13
2019-04-06T04:50:32.342Z,98391.80
2019-04-06T04:52:59.878Z,98386.88
2019-04-06T04:55:27.311Z,98398.05
2019-04-06T04:57:54.874Z,98394.47
2019-04-06T05:00:22.306Z,98399.52
2019-04-06T05:02:49.789Z,98402.38
2019-04-06T05:05:17.286Z,98405.03
2019-04-06T05:07:45.683Z,98406.45
2019-04-06T05:10:13.172Z,98400.80
2019-04-06T05:12:40.657Z,98401.95
2019-04-06T05:15:09.073Z,98406.28
2019-04-06T05:17:36.567Z,98411.28
2019-04-06T05:20:03.995Z,98415.17
2019-04-06T05:22:31.530Z,98413.55
2019-04-06T05:24:58.982Z,98412.48
2019-04-06T05:27:26.420Z,98419.07
2019-04-06T05:29:53.866Z,98422.33
2019-04-06T05:32:21.341Z,98419.59
2019-04-06T05:34:49.871Z,98418.73
2019-04-06T05:37:17.363Z,98414.48
2019-04-06T05:39:44.854Z,98416.12
2019-04-06T05:42:12.289Z,98426.66
2019-04-06T05:44:39.736Z,98426.14
2019-04-06T05:47:07.233Z,98425.37
2019-04-06T05:49:34.681Z,98425.67
2019-04-06T05:52:02.148Z,98431.11
2019-04-06T05:54:29.579Z,98434.53
2019-04-06T05:56:57.263Z,98437.61
2019-04-06T05:59:24.557Z,98440.39
2019-04-06T06:01:52.019Z,98432.90
2019-04-06T06:04:20.403Z,98434.27
2019-04-06T06:06:47.966Z,98442.95
2019-04-06T06:09:16.526Z,98440.52
2019-04-06T06:11:43.862Z,98444.55
2019-04-06T06:14:11.397Z,98444.20
2019-04-06T06:16:38.858Z,98435.69
2019-04-06T06:19:06.332Z,98445.31
2019-04-06T06:21:33.815Z,98442.11
2019-04-06T06:24:01.303Z,98438.33
2019-04-06T06:26:28.972Z,98445.66
2019-04-06T06:28:56.272Z,98440.77
2019-04-06T06:31:23.793Z,98448.01
2019-04-06T06:33:51.292Z,98445.61
2019-04-06T06:36:18.803Z,98444.06
2019-04-06T06:38:46.288Z,98443.16
2019-04-06T06:41:13.717Z,98442.99
2019-04-06T06:43:41.222Z,98445.03
2019-04-06T06:46:08.842Z,98442.12
2019-04-06T06:48:36.202Z,98453.52
2019-04-06T06:51:03.743Z,98449.53
2019-04-06T06:53:32.405Z,98437.00
2019-04-06T06:55:59.789Z,98433.07
2019-04-06T06:58:27.182Z,98433.84
2019-04-06T07:00:54.671Z,98434.95
2019-04-06T07:03:22.122Z,98434.86
2019-04-06T07:05:49.782Z,98434.47
2019-04-06T07:08:17.247Z,98435.28
2019-04-06T07:10:44.630Z,98436.41
2019-04-06T07:13:12.117Z,98437.69
2019-04-06T07:15:39.579Z,98438.25
2019-04-06T07:18:07.074Z,98441.45
2019-04-06T07:20:34.574Z,98451.48
2019-04-06T07:23:02.013Z,98452.88
2019-04-06T07:25:29.476Z,98450.34
2019-04-06T07:27:56.958Z,98450.34
2019-04-06T07:30:24.420Z,98445.50
2019-04-06T07:32:52.051Z,98443.56
2019-04-06T07:35:19.506Z,98450.11
2019-04-06T07:37:47.032Z,98451.19
2019-04-06T07:40:14.505Z,98447.96
2019-04-06T07:42:41.960Z,98446.02
2019-04-06T07:45:09.435Z,98446.22
2019-04-06T07:47:36.973Z,98446.91
2019-04-06T07:50:06.212Z,98454.14
2019-04-06T07:52:33.734Z,98441.53
2019-04-06T07:55:01.308Z,98442.30
2019-04-06T07:57:28.738Z,98448.47
2019-04-06T07:59:56.187Z,98446.75
2019-04-06T08:02:23.661Z,98452.60
2019-04-06T08:04:51.183Z,98447.31
2019-04-06T08:07:18.728Z,98444.09
2019-04-06T08:09:46.565Z,98450.29
2019-04-06T08:12:13.768Z,98452.80
2019-04-06T08:14:41.268Z,98440.84
2019-04-06T08:17:08.737Z,98441.89
2019-04-06T08:19:36.426Z,98437.41
2019-04-06T08:22:03.806Z,98447.27
2019-04-06T08:24:31.276Z,98441.28
2019-04-06T08:26:58.775Z,98444.82
2019-04-06T08:29:26.255Z,98437.38
2019-04-06T08:31:53.749Z,98437.09
2019-04-06T08:34:21.497Z,98448.84
2019-04-06T08:36:48.916Z,98441.88
2019-04-06T08:39:16.233Z,98440.80
2019-04-06T08:41:43.695Z,98438.33
2019-04-06T08:44:11.224Z,98443.92
2019-04-06T08:46:38.687Z,98435.88
2019-04-06T08:49:06.206Z,98436.33
2019-04-06T08:51:33.716Z,98446.32
2019-04-06T08:54:01.194Z,98446.48
2019-04-06T08:56:28.853Z,98448.86
2019-04-06T08:58:56.178Z,98442.80
2019-04-06T09:01:24.710Z,98451.69
2019-04-06T09:03:52.208Z,98455.98
2019-04-06T09:06:19.701Z,98448.86
2019-04-06T09:08:47.169Z,98450.02
2019-04-06T09:11:14.696Z,98449.64
2019-04-06T09:13:42.153Z,98452.41
2019-04-06T09:16:09.730Z,98452.99
2019-04-06T09:18:37.207Z,98449.34
2019-04-06T09:21:04.597Z,98450.86
2019-04-06T09:23:32.648Z,98444.11
2019-04-06T09:26:00.149Z,98444.89
2019-04-06T09:28:27.629Z,98444.66
2019-04-06T09:30:55.113Z,98436.15
2019-04-06T09:33:22.623Z,98436.25
2019-04-06T09:35:50.146Z,98439.34
2019-04-06T09:38:19.742Z,98439.11
2019-04-06T09:40:47.261Z,98434.41
2019-04-06T09:43:14.543Z,98430.66
2019-04-06T09:45:57.221Z,98431.31
2019-04-06T09:48:28.477Z,98432.19
2019-04-06T09:51:10.850Z,98431.20
2019-04-06T09:53:44.072Z,98430.30
2019-04-06T09:56:17.218Z,98433.30
2019-04-06T09:59:00.405Z,98433.48
2019-04-06T10:01:43.688Z,98431.16
2019-04-06T10:04:17.671Z,98426.40
2019-04-06T10:06:44.942Z,98432.81
2019-04-06T10:09:14.350Z,98427.45
2019-04-06T10:11:43.702Z,98431.53
2019-04-06T10:14:13.054Z,98437.38
2019-04-06T10:16:40.541Z,98430.44
2019-04-06T10:19:23.148Z,98423.12
2019-04-06T10:22:00.830Z,98422.87
2019-04-06T10:24:29.595Z,98423.88
2019-04-06T10:27:11.782Z,98431.73
2019-04-06T10:29:48.819Z,98425.25
2019-04-06T10:32:20.138Z,98421.17
2019-04-06T10:34:51.079Z,98429.84
2019-04-06T10:37:24.058Z,98421.94
2019-04-06T10:39:53.097Z,98420.98
2019-04-06T10:42:28.540Z,98413.17
2019-04-06T10:44:58.435Z,98417.84
2019-04-06T10:47:27.779Z,98416.92
2019-04-06T10:50:14.049Z,98411.48
2019-04-06T10:53:01.331Z,98414.75
2019-04-06T10:55:28.856Z,98412.98
2019-04-06T10:58:00.219Z,98408.25
2019-04-06T11:00:44.123Z,98403.82
2019-04-06T11:03:23.306Z,98404.41
2019-04-06T11:06:06.440Z,98399.76
2019-04-06T11:08:39.404Z,98399.84
2019-04-06T11:11:21.652Z,98394.74
2019-04-06T11:13:54.870Z,98388.56
2019-04-06T11:16:26.968Z,98389.12
2019-04-06T11:19:11.228Z,98385.47
2019-04-06T11:21:41.485Z,98382.86
2019-04-06T11:24:12.915Z,98385.05
2019-04-06T11:26:40.372Z,98384.19
2019-04-06T11:29:09.527Z,98382.70
2019-04-06T11:31:41.272Z,98377.45
2019-04-06T11:34:12.554Z,98381.54
2019-04-06T11:36:58.290Z,98374.48
2019-04-06T11:39:26.592Z,98371.84
2019-04-06T11:42:13.853Z,98369.37
2019-04-06T11:44:41.572Z,98369.61
2019-04-06T11:47:21.600Z,98371.56
2019-04-06T11:50:04.521Z,98370.84
2019-04-06T11:52:37.623Z,98378.20
2019-04-06T11:55:09.642Z,98370.91
2019-04-06T11:57:37.522Z,98369.23
2019-04-06T12:00:05.977Z,98368.05
2019-04-06T12:02:33.939Z,98364.05
2019-04-06T12:05:02.798Z,98364.06
2019-04-06T12:07:39.011Z,98360.27
2019-04-06T12:10:13.110Z,98362.59
2019-04-06T12:12:42.018Z,98354.19
2019-04-06T12:15:26.267Z,98353.74
2019-04-06T12:17:59.403Z,98359.73
2019-04-06T12:20:33.481Z,98358.12
2019-04-06T12:23:03.849Z,98357.39
2019-04-06T12:25:35.997Z,98349.31
2019-04-06T12:28:07.527Z,98358.58
2019-04-06T12:30:42.474Z,98355.13
2019-04-06T12:33:30.351Z,98356.06
2019-04-06T12:35:58.864Z,98353.75
2019-04-06T12:38:28.055Z,98354.37
2019-04-06T12:41:16.313Z,98354.77
2019-04-06T12:43:49.325Z,98358.34
2019-04-06T12:46:18.719Z,98353.55
2019-04-06T12:48:54.797Z,98354.08
2019-04-06T12:51:22.958Z,98353.69
2019-04-06T12:53:52.505Z,98344.22
2019-04-06T12:56:35.495Z,98350.52
2019-04-06T12:59:17.736Z,98346.05
2019-04-06T13:02:00.385Z,98347.28
2019-04-06T13:04:42.718Z,98342.84
2019-04-06T13:07:27.947Z,98341.37
2019-04-06T13:09:56.450Z,98346.09
2019-04-06T13:12:24.514Z,98343.11
2019-04-06T13:14:53.245Z,98341.73
2019-04-06T13:17:21.341Z,98338.02
2019-04-06T13:19:51.527Z,98336.19
2019-04-06T13:22:25.158Z,98334.30
2019-04-06T13:24:58.442Z,98333.28
2019-04-06T13:27:26.819Z,98332.11
2019-04-06T13:29:54.434Z,98328.10
2019-04-06T13:32:24.269Z,98324.46
2019-04-06T13:35:06.803Z,98330.14
2019-04-06T13:37:37.378Z,98322.81
2019-04-06T13:40:22.567Z,98320.38
2019-04-06T13:42:51.473Z,98323.98
2019-04-06T13:45:33.831Z,98330.25
2019-04-06T13:48:02.391Z,98327.35
2019-04-06T13:50:30.115Z,98331.49
2019-04-06T13:53:16.290Z,98334.97
2019-04-06T13:55:59.709Z,98331.27
2019-04-06T13:58:26.888Z,98337.17
2019-04-06T14:00:56.860Z,98340.64
2019-04-06T14:03:27.269Z,98339.78
2019-04-06T14:05:57.019Z,98337.64
2019-04-06T14:08:27.092Z,98336.95
2019-04-06T14:10:54.538Z,98331.97
2019-04-06T14:13:22.856Z,98336.95
2019-04-06T14:15:59.132Z,98332.87
2019-04-06T14:18:33.510Z,98332.48
2019-04-06T14:21:03.383Z,98337.20
2019-04-06T14:23:34.352Z,98337.05
2019-04-06T14:26:02.212Z,98327.72
2019-04-06T14:28:29.662Z,98330.88
2019-04-06T14:31:02.918Z,98333.44
2019-04-06T14:33:36.471Z,98329.13
2019-04-06T14:36:03.960Z,98327.22
2019-04-06T14:38:33.373Z,98322.22
2019-04-06T14:41:01.646Z,98327.53
2019-04-06T14:43:45.800Z,98327.09
2019-04-06T14:46:13.249Z,98327.20
2019-04-06T14:48:44.587Z,98323.34
2019-04-06T14:51:17.697Z,98336.20
2019-04-06T14:54:00.044Z,98339.20
2019-04-06T14:56:30.284Z,98337.09
2019-04-06T14:58:58.178Z,98337.48
2019-04-06T15:01:41.514Z,98336.30
2019-04-06T15:04:09.490Z,98330.44
2019-04-06T15:06:49.759Z,98329.16
2019-04-06T15:09:17.982Z,98330.64
2019-04-06T15:11:51.480Z,98327.22
2019-04-06T15:14:36.367Z,98329.64
2019-04-06T15:17:05.660Z,98330.60
2019-04-06T15:19:36.695Z,98323.98
2019-04-06T15:22:04.385Z,98326.48
2019-04-06T15:24:37.417Z,98326.38
2019-04-06T15:27:11.402Z,98323.31
2019-04-06T15:29:42.137Z,98318.56
2019-04-06T15:32:15.522Z,98317.95
2019-04-06T15:34:48.211Z,98319.62
2019-04-06T15:37:20.909Z,98309.10
2019-04-06T15:39:54.677Z,98310.87
2019-04-06T15:42:24.535Z,98313.52
2019-04-06T15:44:57.473Z,98311.34
2019-04-06T15:47:41.963Z,98314.13
2019-04-06T15:50:14.871Z,98311.73
2019-04-06T15:52:42.331Z,98316.63
2019-04-06T15:55:28.352Z,98317.77
2019-04-06T15:58:11.763Z,98313.34
2019-04-06T16:00:39.906Z,98312.89
2019-04-06T16:03:11.878Z,98314.72
2019-04-06T16:05:43.934Z,98312.42
2019-04-06T16:08:21.315Z,98311.89
2019-04-06T16:10:55.438Z,98315.13
2019-04-06T16:13:29.159Z,98312.69
2019-04-06T16:16:06.164Z,98322.20
2019-04-06T16:18:33.672Z,98316.50
2019-04-06T16:21:02.824Z,98314.24
2019-04-06T16:23:32.613Z,98317.14
2019-04-06T16:26:15.167Z,98317.75
2019-04-06T16:28:59.162Z,98319.45
2019-04-06T16:31:31.443Z,98315.38
2019-04-06T16:33:59.273Z,98315.98
2019-04-06T16:36:30.290Z,98316.80
2019-04-06T16:38:57.706Z,98325.48
2019-04-06T16:41:35.743Z,98315.53
2019-04-06T16:44:07.244Z,98311.82
2019-04-06T16:46:49.348Z,98320.12
2019-04-06T16:49:16.819Z,98315.11
2019-04-06T16:51:49.922Z,98321.16
2019-04-06T16:54:23.309Z,98317.94
2019-04-06T16:56:50.814Z,98312.70
2019-04-06T16:59:20.231Z,98316.81
2019-04-06T17:02:04.347Z,98318.50
2019-04-06T17:04:32.706Z,98318.50
2019-04-06T17:07:01.936Z,98310.23
2019-04-06T17:09:34.406Z,98314.05
2019-04-06T17:12:04.998Z,98315.89
2019-04-06T17:14:32.563Z,98312.70
2019-04-06T17:17:15.586Z,98314.13
2019-04-06T17:19:47.453Z,98315.08
2019-04-06T17:22:33.726Z,98319.70
2019-04-06T17:25:04.552Z,98317.48
2019-04-06T17:27:37.439Z,98314.05
2019-04-06T17:30:06.395Z,98317.34
2019-04-06T17:32:38.140Z,98315.36
2019-04-06T17:35:07.578Z,98317.41
2019-04-06T17:37:36.869Z,98314.27
2019-04-06T17:40:20.126Z,98310.59
2019-04-06T17:42:52.699Z,98310.77
2019-04-06T17:45:30.217Z,98309.28
2019-04-06T17:48:12.168Z,98312.39
2019-04-06T17:50:41.176Z,98314.43
2019-04-06T17:53:11.487Z,98311.17
2019-04-06T17:55:38.951Z,98315.76
2019-04-06T17:58:11.643Z,98313.23
2019-04-06T18:00:43.014Z,98310.31
2019-04-06T18:03:10.468Z,98318.38
2019-04-06T18:05:43.759Z,98323.11
2019-04-06T18:08:13.418Z,98321.88
2019-04-06T18:10:43.667Z,98316.64
2019-04-06T18:13:16.947Z,98322.45
2019-04-06T18:15:44.121Z,98320.25
2019-04-06T18:18:11.726Z,98318.11
2019-04-06T18:20:39.103Z,98324.30
2019-04-06T18:23:06.589Z,98324.30
2019-04-06T18:25:35.162Z,98326.84
2019-04-06T18:28:02.825Z,98328.83
2019-04-06T18:30:30.498Z,98334.27
2019-04-06T18:33:03.297Z,98336.45
2019-04-06T18:35:29.472Z,98332.34
2019-04-06T18:38:00.396Z,98335.66
2019-04-06T18:40:27.350Z,98328.69
2019-04-06T18:42:55.136Z,98336.63
2019-04-06T18:45:22.348Z,98335.61
2019-04-06T18:47:49.815Z,98335.80
2019-04-06T18:50:17.270Z,98330.47
2019-04-06T18:52:45.168Z,98328.15
2019-04-06T18:55:12.961Z,98332.69
2019-04-06T18:57:40.315Z,98338.77
2019-04-06T19:00:11.608Z,98336.27
2019-04-06T19:02:37.091Z,98339.05
2019-04-06T19:05:04.604Z,98340.31
2019-04-06T19:07:32.054Z,98337.44
2019-04-06T19:09:59.525Z,98338.52
2019-04-06T19:12:26.971Z,98332.38
2019-04-06T19:14:55.786Z,98338.58
2019-04-06T19:17:22.807Z,98342.56
2019-04-06T19:19:50.267Z,98342.33
2019-04-06T19:22:17.701Z,98341.80
2019-04-06T19:24:45.161Z,98345.64
2019-04-06T19:27:12.595Z,98340.98
2019-04-06T19:29:40.485Z,98344.88
2019-04-06T19:32:07.589Z,98352.89
2019-04-06T19:34:35.134Z,98354.30
2019-04-06T19:37:02.558Z,98349.46
2019-04-06T19:39:29.998Z,98356.66
2019-04-06T19:41:57.463Z,98353.42
2019-04-06T19:44:26.015Z,98351.14
2019-04-06T19:46:53.211Z,98349.02
2019-04-06T19:49:20.673Z,98358.30
2019-04-06T19:51:49.133Z,98352.42
2019-04-06T19:54:16.629Z,98343.87
2019-04-06T19:56:44.099Z,98352.41
2019-04-06T19:59:12.923Z,98349.36
2019-04-06T20:01:39.058Z,98340.97
2019-04-06T20:04:06.860Z,98344.27
2019-04-06T20:06:34.561Z,98350.08
2019-04-06T20:09:01.500Z,98345.02
2019-04-06T20:11:28.940Z,98346.10
2019-04-06T20:13:56.423Z,98340.58
2019-04-06T20:16:23.865Z,98341.73
2019-04-06T20:18:51.360Z,98349.98
2019-04-06T20:21:19.592Z,98341.70
2019-04-06T20:23:47.082Z,98338.25
2019-04-06T20:26:14.606Z,98335.03
2019-04-06T20:28:42.048Z,98336.03
2019-04-06T20:31:09.497Z,98332.39
2019-04-06T20:33:47.335Z,98338.30
2019-04-06T20:36:04.714Z,98328.67
2019-04-06T20:38:32.255Z,98328.55
2019-04-06T20:40:59.401Z,98331.02
2019-04-06T20:43:26.917Z,98334.88
2019-04-06T20:45:54.368Z,98337.92
2019-04-06T20:48:21.820Z,98338.55
2019-04-06T20:50:49.736Z,98341.30
2019-04-06T20:53:17.108Z,98341.56
2019-04-06T20:55:45.260Z,98347.55
2019-04-06T20:58:12.829Z,98346.56
2019-04-06T21:00:40.332Z,98347.72
2019-04-06T21:03:07.793Z,98350.55
2019-04-06T21:05:35.644Z,98341.89
2019-04-06T21:08:02.759Z,98350.15
2019-04-06T21:10:30.242Z,98350.38
2019-04-06T21:12:57.719Z,98350.63
2019-04-06T21:15:25.192Z,98350.81
2019-04-06T21:17:53.415Z,98345.31
2019-04-06T21:20:20.940Z,98346.32
2019-04-06T21:22:48.393Z,98346.63
2019-04-06T21:25:15.866Z,98336.98
2019-04-06T21:27:44.154Z,98343.21
2019-04-06T21:30:10.949Z,98340.13
2019-04-06T21:32:38.329Z,98336.38
2019-04-06T21:35:05.789Z,98335.39
2019-04-06T21:37:33.493Z,98341.88
2019-04-06T21:40:01.057Z,98338.27
2019-04-06T21:42:28.643Z,98343.31
2019-04-06T21:44:55.697Z,98342.21
2019-04-06T21:47:23.169Z,98338.69
2019-04-06T21:49:51.269Z,98339.02
2019-04-06T21:52:18.354Z,98339.83
2019-04-06T21:54:45.831Z,98342.36
2019-04-06T21:57:14.182Z,98343.59
2019-04-06T21:59:41.691Z,98343.89
2019-04-06T22:02:08.884Z,98339.30
2019-04-06T22:04:36.400Z,98335.28
2019-04-06T22:07:04.273Z,98339.77
2019-04-06T22:09:32.336Z,98337.08
2019-04-06T22:11:59.432Z,98341.65
2019-04-06T22:14:26.980Z,98336.59
2019-04-06T22:16:54.911Z,98333.36
2019-04-06T22:19:22.460Z,98338.05
2019-04-06T22:21:49.454Z,98327.77
2019-04-06T22:24:17.121Z,98329.50
2019-04-06T22:26:44.500Z,98330.72
2019-04-06T22:29:11.997Z,98327.23
2019-04-06T22:31:39.484Z,98328.80
2019-04-06T22:34:07.030Z,98328.31
2019-04-06T22:36:35.613Z,98334.31
2019-04-06T22:39:03.192Z,98334.57
2019-04-06T22:41:31.064Z,98332.25
2019-04-06T22:43:57.990Z,98328.78
2019-04-06T22:46:25.417Z,98331.67
2019-04-06T22:48:52.878Z,98335.55
2019-04-06T22:51:20.747Z,98328.41
2019-04-06T22:53:47.838Z,98322.67
2019-04-06T22:56:15.333Z,98324.67
2019-04-06T22:58:42.807Z,98318.14
2019-04-06T23:01:10.696Z,98324.23
2019-04-06T23:03:41.242Z,98322.30
2019-04-06T23:06:10.451Z,98318.65
2019-04-06T23:08:38.330Z,98325.76
2019-04-06T23:11:06.608Z,98318.36
2019-04-06T23:13:34.530Z,98321.14
2019-04-06T23:16:02.025Z,98322.56
2019-04-06T23:18:29.020Z,98323.81
2019-04-06T23:20:56.563Z,98319.77
2019-04-06T23:23:24.542Z,98320.64
2019-04-06T23:25:51.856Z,98325.16
2019-04-06T23:30:52.630Z,98310.62
2019-04-06T23:33:21.206Z,98316.11
2019-04-06T23:35:49.151Z,98305.73
2019-04-06T23:38:16.757Z,98309.62
2019-04-06T23:40:44.282Z,98306.88
2019-04-06T23:43:11.738Z,98300.86
2019-04-06T23:45:39.446Z,98307.06
2019-04-06T23:48:07.119Z,98301.80
2019-04-06T23:50:34.603Z,98305.45
2019-04-06T23:53:01.631Z,98300.17
2019-04-06T23:55:30.065Z,98305.20
2019-04-06T23:57:57.976Z,98298.33
